Airfield :
LOGIN :

Register | Disclaimer

   EN    FR    IT 

 










Legend :    VFR   Marginal VFR   IFR   Intensive IFR   Very Intensive IFR
Visi :
Ceiling :
>= 8 km
>= 3000ft
5 to 8 km
1000 to 3000 ft
1500m to 5 km
500 to 1000 ft
800 to 1500m
200 to 500 ft
< 800m
< 200 ft
Symbols :   Thunderstorms  Fog  Heavy snow  Heavy precipitations  Wind > 20 kt
SIGMETs :     Misc.  Thunderstorms  Icing  Turbulence  Mountain Waves  Volcanic Ashes







- Airport Elevation : 1273 ft
- IATA code : LJU


LJLJ - Ljubljana

CURRENT METAR :
  • 190130Z VRB02KT 8000 MIFG FEW001 SCT035 BKN050 M02/M02 Q1019 NOSIG

EXPIRED METARs :
  • 190100Z VRB01KT 8000 MIFG FEW001 SCT035 BKN050 M02/M02 Q1019 NOSIG
  • 190030Z 00000KT 7000 0400SE R30/0600N PRFG FEW001 SCT035 BKN050 M02/M02 Q1019 NOSIG
  • 190000Z 32002KT 0400 R30/0450N FZFG FEW001 SCT015 BKN050 M02/M03 Q1019 NOSIG
  • 182330Z 00000KT 0500 R30/0450V0600N FZFG FEW001 SCT015 BKN047 M02/M02 Q1019 NOSIG
  • 182300Z VRB01KT 7000 MIFG FEW001 SCT010 BKN045 M01/M01 Q1019 NOSIG

TAF TAF LJLJ
Valid from the 19 at 00:00 until the 20 at 00:00 UTC


182300Z 1900/1924 VRB01KT 7000 MIFG FEW001 SCT010 BKN045
PROB40
TEMPO 1900/1908 0600 FZFG VV001
BECMG 1909/1911 10005KT 9999 NSW
No reported NOTAMs for that airfield.
1 SIGMET reported for the Ljubljana FIR (LJLA) :
 
Severe turbulence
LJLA SIGMET 2 VALID 182300/190200 LJLJ
LJLA LJUBLJANA FIR SEV TURB FCST SW OF LINE N4607 E01337 - N4539 E01434 SFC/5000FT STNR NC=



MET'MAP, your aeronautical weather chart ! - Copyright ORBIFLY December 2007 - Disclaimer

ORBIFLY MET'MAP TEAM :

Programming & Development : Alexandra Zaïnal
Concept & Development : Baudouin d'Aumeries
Co-Development & Prog : Marc-Olivier Méhu
Technical & hardware support : Manuel Goepfert

Contact : metmap@orbifly.com




SOURCES & CREDITS :

   NOAA